Time;durP1;ratioP1;P1;durP2;ratioP2;P2;SDS_P1;SDS_P2;PMS_P1;PMS_P2;Temp;Humidity;BMP_temperature;BMP_pressure;BME280_temperature;BME280_humidity;BME280_pressure;Samples;Min_cycle;Max_cycle;Signal;HPM_P1;HPM_P2
2024/03/16 00:01:09;;;;;;;33.80;23.10;;;;;;;6.33;100.00;100960.77;107875;1257;61215;-66
2024/03/16 00:03:38;;;;;;;36.20;23.70;;;;;;;6.36;100.00;100958.34;107929;1254;61075;-66
2024/03/16 00:06:05;;;;;;;36.20;23.70;;;;;;;6.35;100.00;100957.57;108037;1254;73476;-66
2024/03/16 00:08:34;;;;;;;39.20;23.90;;;;;;;6.35;100.00;100956.95;107931;1257;71444;-67
2024/03/16 00:11:02;;;;;;;39.90;24.30;;;;;;;6.40;100.00;100958.98;107985;1257;72747;-66
2024/03/16 00:13:29;;;;;;;38.40;24.60;;;;;;;6.43;100.00;100960.48;108034;1257;61151;-66
2024/03/16 00:15:57;;;;;;;36.30;22.50;;;;;;;6.43;100.00;100962.70;108016;1254;61211;-67
2024/03/16 00:18:25;;;;;;;34.40;22.10;;;;;;;6.40;100.00;100957.52;107939;1254;73628;-66
2024/03/16 00:20:52;;;;;;;34.70;22.60;;;;;;;6.35;100.00;100959.86;108025;1254;71537;-66
2024/03/16 00:23:20;;;;;;;37.30;22.60;;;;;;;6.29;100.00;100956.81;107888;1257;71433;-67
2024/03/16 00:25:48;;;;;;;34.90;21.90;;;;;;;6.27;100.00;100956.59;108000;1257;61918;-67
2024/03/16 00:28:16;;;;;;;35.90;22.60;;;;;;;6.25;100.00;100956.61;107885;1254;60385;-67
2024/03/16 00:30:43;;;;;;;34.70;22.30;;;;;;;6.25;100.00;100955.88;108024;1254;72440;-66
2024/03/16 00:33:11;;;;;;;37.80;23.20;;;;;;;6.23;100.00;100951.08;107951;1257;72758;-67
2024/03/16 00:35:40;;;;;;;37.70;22.70;;;;;;;6.22;100.00;100952.83;107955;1254;71381;-67
2024/03/16 00:38:09;;;;;;;39.70;23.60;;;;;;;6.23;100.00;100949.57;108018;1257;61158;-66
2024/03/16 00:40:37;;;;;;;40.50;23.20;;;;;;;6.26;100.00;100947.61;108005;1254;61217;-67
2024/03/16 00:43:05;;;;;;;44.70;25.30;;;;;;;6.31;100.00;100949.00;108000;1254;73373;-66
2024/03/16 00:45:33;;;;;;;42.30;24.80;;;;;;;6.38;100.00;100948.16;108042;1254;72952;-66
2024/03/16 00:48:04;;;;;;;49.30;25.80;;;;;;;6.45;100.00;100946.27;108016;1254;71645;-67
2024/03/16 00:50:32;;;;;;;43.60;25.50;;;;;;;6.53;100.00;100948.25;108025;1257;61114;-66
2024/03/16 00:53:00;;;;;;;43.70;24.80;;;;;;;6.56;100.00;100945.96;107983;1254;62004;-68
2024/03/16 00:55:27;;;;;;;50.50;26.80;;;;;;;6.57;100.00;100947.88;108034;1254;73482;-67
2024/03/16 00:57:56;;;;;;;52.60;26.30;;;;;;;6.56;100.00;100948.08;107991;1254;72929;-67
2024/03/16 01:00:24;;;;;;;52.00;25.50;;;;;;;6.55;100.00;100951.86;108110;1260;72855;-65
2024/03/16 01:02:51;;;;;;;52.90;26.50;;;;;;;6.52;100.00;100949.23;107908;1260;61143;-65
2024/03/16 01:05:19;;;;;;;49.70;25.30;;;;;;;6.48;100.00;100948.80;107930;1255;61258;-66
2024/03/16 01:07:47;;;;;;;49.30;25.40;;;;;;;6.43;100.00;100947.70;107963;1255;73684;-65
2024/03/16 01:10:15;;;;;;;47.20;25.00;;;;;;;6.41;100.00;100952.34;107912;1254;73246;-65
2024/03/16 01:12:43;;;;;;;54.60;26.40;;;;;;;6.40;100.00;100950.35;107968;1256;72606;-67
2024/03/16 01:15:11;;;;;;;48.00;25.20;;;;;;;6.43;100.00;100948.69;107938;1256;61179;-67
2024/03/16 01:17:38;;;;;;;48.80;25.80;;;;;;;6.40;100.00;100947.36;107839;1256;61245;-67
2024/03/16 01:20:08;;;;;;;49.30;25.00;;;;;;;6.32;100.00;100947.20;107825;1254;74717;-66
2024/03/16 01:22:35;;;;;;;45.50;25.10;;;;;;;6.25;100.00;100947.95;108017;1260;72741;-67
2024/03/16 01:25:03;;;;;;;48.10;24.70;;;;;;;6.25;100.00;100947.95;108015;1256;71455;-67
2024/03/16 01:27:33;;;;;;;45.10;24.50;;;;;;;6.28;100.00;100951.15;107941;1258;60389;-66
2024/03/16 01:30:02;;;;;;;44.80;24.50;;;;;;;6.28;100.00;100949.35;107882;1259;61085;-66
2024/03/16 01:32:30;;;;;;;46.60;24.10;;;;;;;6.24;100.00;100949.88;107948;1258;74742;-66
2024/03/16 01:34:58;;;;;;;46.30;24.30;;;;;;;6.24;100.00;100947.27;107993;1254;71624;-68
2024/03/16 01:37:26;;;;;;;45.10;23.90;;;;;;;6.25;100.00;100948.52;107990;1260;71203;-68
2024/03/16 01:39:55;;;;;;;47.90;25.50;;;;;;;6.24;100.00;100950.08;107966;1254;61234;-66
2024/03/16 01:42:23;;;;;;;42.90;23.00;;;;;;;6.18;100.00;100946.88;107997;1256;60272;-66
2024/03/16 01:45:14;;;;;;;45.20;23.40;;;;;;;6.16;100.00;100946.77;108080;1255;74686;-66
2024/03/16 01:47:42;;;;;;;46.70;25.20;;;;;;;6.23;100.00;100949.58;107916;1260;72765;-66
2024/03/16 01:50:10;;;;;;;43.00;23.60;;;;;;;6.29;100.00;100950.25;108157;1254;71500;-67
2024/03/16 01:52:37;;;;;;;44.20;24.70;;;;;;;6.32;100.00;100949.39;107973;1260;61237;-67
2024/03/16 01:55:05;;;;;;;43.90;23.90;;;;;;;6.38;100.00;100945.52;108055;1254;59022;-67
2024/03/16 01:57:33;;;;;;;43.70;23.20;;;;;;;6.42;100.00;100952.80;108184;1258;74698;-66
2024/03/16 02:00:01;;;;;;;44.20;24.20;;;;;;;6.42;100.00;100952.96;108006;1260;72844;-67
2024/03/16 02:02:37;;;;;;;37.30;22.20;;;;;;;6.33;100.00;100958.05;107941;1259;71418;-66
2024/03/16 02:05:05;;;;;;;41.60;21.80;;;;;;;6.20;100.00;100960.20;107837;1257;61093;-66
2024/03/16 02:07:34;;;;;;;44.00;23.10;;;;;;;6.11;100.00;100958.16;107957;1254;61282;-66
2024/03/16 02:10:04;;;;;;;43.90;23.50;;;;;;;6.05;100.00;100961.67;107953;1260;74664;-66
2024/03/16 02:12:32;;;;;;;43.00;22.30;;;;;;;6.00;100.00;100962.70;107945;1262;71657;-67
2024/03/16 02:15:02;;;;;;;44.00;23.40;;;;;;;5.97;100.00;100955.55;108003;1254;71508;-67
2024/03/16 02:17:29;;;;;;;41.80;22.40;;;;;;;5.96;100.00;100957.59;107994;1256;61506;-66
2024/03/16 02:19:57;;;;;;;36.10;21.40;;;;;;;5.98;100.00;100956.64;107918;1260;61205;-66
2024/03/16 02:22:24;;;;;;;39.00;21.00;;;;;;;6.00;100.00;100956.48;107935;1255;73455;-67
2024/03/16 02:24:52;;;;;;;37.80;21.30;;;;;;;6.03;100.00;100955.69;108089;1260;72527;-67
2024/03/16 02:27:20;;;;;;;35.30;20.50;;;;;;;6.06;100.00;100958.64;108041;1254;73182;-67
2024/03/16 02:29:48;;;;;;;34.10;21.00;;;;;;;6.06;100.00;100963.63;108069;1260;61102;-68
2024/03/16 02:32:16;;;;;;;34.20;20.10;;;;;;;6.01;100.00;100964.90;107982;1254;61103;-66
2024/03/16 02:34:44;;;;;;;35.20;19.60;;;;;;;5.98;100.00;100967.40;107964;1258;73458;-67
2024/03/16 02:37:12;;;;;;;37.10;19.60;;;;;;;5.96;100.00;100972.11;108032;1257;71302;-67
2024/03/16 02:39:40;;;;;;;34.90;19.80;;;;;;;5.94;100.00;100972.79;107927;1257;71645;-66
2024/03/16 02:42:08;;;;;;;35.10;19.10;;;;;;;5.93;100.00;100969.08;107910;1258;60993;-67
2024/03/16 02:44:35;;;;;;;33.60;18.50;;;;;;;5.93;100.00;100970.64;108009;1257;61330;-67
2024/03/16 02:47:04;;;;;;;27.10;17.10;;;;;;;5.95;100.00;100974.09;107888;1254;73425;-66
2024/03/16 02:49:35;;;;;;;28.30;17.20;;;;;;;5.92;100.00;100972.28;108017;1254;71617;-65
2024/03/16 02:52:05;;;;;;;29.20;17.70;;;;;;;5.92;100.00;100970.41;108132;1254;72711;-68
2024/03/16 02:54:33;;;;;;;25.90;16.10;;;;;;;5.95;100.00;100969.71;108037;1254;61125;-68
2024/03/16 02:57:00;;;;;;;22.80;14.90;;;;;;;6.01;100.00;100969.42;108029;1254;60476;-66
2024/03/16 02:59:29;;;;;;;23.00;15.50;;;;;;;6.04;100.00;100968.13;108002;1254;72737;-66
2024/03/16 03:01:57;;;;;;;21.50;14.70;;;;;;;6.08;100.00;100970.02;108111;1258;71754;-66
2024/03/16 03:04:25;;;;;;;22.00;15.30;;;;;;;6.13;100.00;100965.48;107960;1261;72733;-66
2024/03/16 03:06:54;;;;;;;20.50;14.20;;;;;;;6.15;100.00;100967.51;107973;1257;60807;-66
2024/03/16 03:09:22;;;;;;;22.20;15.10;;;;;;;6.15;100.00;100963.99;107951;1256;61434;-66
2024/03/16 03:11:49;;;;;;;20.10;14.60;;;;;;;6.17;100.00;100966.23;108021;1257;73194;-66
2024/03/16 03:14:17;;;;;;;21.50;14.40;;;;;;;6.21;100.00;100967.48;107961;1254;71586;-66
2024/03/16 03:16:44;;;;;;;22.20;14.40;;;;;;;6.21;100.00;100971.94;107915;1254;72721;-66
2024/03/16 03:19:12;;;;;;;19.60;14.20;;;;;;;6.16;100.00;100971.75;108243;1254;60959;-66
2024/03/16 03:21:40;;;;;;;20.00;13.30;;;;;;;6.07;100.00;100973.48;107996;1257;61317;-67
2024/03/16 03:24:08;;;;;;;21.30;13.90;;;;;;;6.01;100.00;100972.40;107969;1257;73460;-67
2024/03/16 03:26:35;;;;;;;19.80;13.70;;;;;;;5.94;100.00;100974.27;107877;1257;71368;-66
2024/03/16 03:29:03;;;;;;;19.30;14.00;;;;;;;5.90;100.00;100975.18;107890;1257;71054;-66
2024/03/16 03:31:30;;;;;;;20.60;13.90;;;;;;;5.85;100.00;100972.69;107833;1254;61209;-66
2024/03/16 03:33:58;;;;;;;21.90;14.60;;;;;;;5.80;100.00;100973.86;107951;1257;61269;-66
2024/03/16 03:36:26;;;;;;;22.20;14.30;;;;;;;5.80;100.00;100977.35;107890;1254;73880;-66
2024/03/16 03:38:54;;;;;;;21.70;14.60;;;;;;;5.80;100.00;100975.45;107936;1258;71410;-66
2024/03/16 03:41:22;;;;;;;22.60;14.90;;;;;;;5.82;100.00;100980.02;107949;1254;71370;-67
2024/03/16 03:43:57;;;;;;;23.10;15.20;;;;;;;5.83;100.00;100982.42;107987;1257;61732;-66
2024/03/16 03:46:50;;;;;;;23.40;15.60;;;;;;;5.87;100.00;100983.09;107985;1254;61343;-66
2024/03/16 03:49:35;;;;;;;22.60;15.20;;;;;;;5.94;100.00;100984.04;108149;1256;73223;-67
2024/03/16 03:52:03;;;;;;;23.20;15.40;;;;;;;6.02;100.00;100982.95;108017;1254;71482;-66
2024/03/16 03:54:34;;;;;;;22.40;14.70;;;;;;;6.09;100.00;100984.37;107966;1254;71701;-67
2024/03/16 03:57:03;;;;;;;21.50;15.10;;;;;;;6.16;100.00;100981.45;107926;1256;61697;-67
2024/03/16 03:59:32;;;;;;;20.90;14.50;;;;;;;6.21;100.00;100982.72;108042;1257;61234;-66
2024/03/16 04:01:59;;;;;;;22.50;15.30;;;;;;;6.23;100.00;100985.44;107924;1256;73456;-67
2024/03/16 04:04:27;;;;;;;23.50;15.70;;;;;;;6.25;100.00;100982.80;107942;1257;71821;-67
2024/03/16 04:06:55;;;;;;;22.40;15.30;;;;;;;6.25;100.00;100983.53;108066;1257;72750;-66
2024/03/16 04:09:23;;;;;;;23.30;15.40;;;;;;;6.26;100.00;100984.77;107978;1260;61196;-66
2024/03/16 04:11:50;;;;;;;22.30;15.10;;;;;;;6.27;100.00;100986.89;108035;1254;59436;-66
2024/03/16 04:14:19;;;;;;;20.50;14.30;;;;;;;6.28;100.00;100987.71;107986;1254;73363;-66
2024/03/16 04:16:48;;;;;;;22.30;15.10;;;;;;;6.29;100.00;100989.38;107981;1257;71141;-66
2024/03/16 04:19:16;;;;;;;22.10;14.30;;;;;;;6.31;100.00;100990.63;108002;1257;71360;-66
2024/03/16 04:21:44;;;;;;;21.60;14.40;;;;;;;6.35;100.00;100994.10;107730;1262;62031;-66
2024/03/16 04:24:11;;;;;;;22.00;14.90;;;;;;;6.39;100.00;100996.69;107976;1254;61093;-67
2024/03/16 04:26:39;;;;;;;20.40;14.10;;;;;;;6.38;100.00;100992.00;107976;1254;74622;-66
2024/03/16 04:29:07;;;;;;;20.30;13.90;;;;;;;6.36;100.00;100995.61;108067;1254;72471;-67
2024/03/16 04:31:34;;;;;;;19.20;13.50;;;;;;;6.32;100.00;100992.36;108011;1254;71411;-66
2024/03/16 04:34:02;;;;;;;18.40;13.90;;;;;;;6.29;100.00;100995.23;108061;1254;61118;-67
2024/03/16 04:36:31;;;;;;;21.50;14.80;;;;;;;6.27;100.00;100996.66;107979;1256;61233;-66
2024/03/16 04:38:59;;;;;;;18.80;13.80;;;;;;;6.24;100.00;100997.05;107865;1257;74796;-66
2024/03/16 04:41:27;;;;;;;19.20;13.90;;;;;;;6.24;100.00;100994.23;107884;1256;72759;-66
2024/03/16 04:43:59;;;;;;;20.30;14.20;;;;;;;6.26;100.00;100999.04;107995;1254;70447;-66
2024/03/16 04:46:32;;;;;;;20.10;14.00;;;;;;;6.28;100.00;100996.36;108004;1260;61084;-66
2024/03/16 04:49:01;;;;;;;18.90;13.30;;;;;;;6.28;100.00;100994.61;108050;1256;61282;-67
2024/03/16 04:51:29;;;;;;;18.10;13.00;;;;;;;6.26;100.00;100996.79;107893;1257;75691;-67
2024/03/16 04:53:57;;;;;;;19.00;13.40;;;;;;;6.24;100.00;100995.66;107892;1260;71489;-66
2024/03/16 04:56:25;;;;;;;19.10;13.30;;;;;;;6.24;100.00;100996.81;107869;1257;71075;-66
2024/03/16 04:58:53;;;;;;;18.30;12.90;;;;;;;6.19;100.00;100996.98;107892;1260;61092;-66
2024/03/16 05:01:21;;;;;;;19.10;13.10;;;;;;;6.16;100.00;100998.64;107925;1255;61230;-66
2024/03/16 05:03:50;;;;;;;19.00;12.90;;;;;;;6.13;100.00;100996.95;107987;1256;73524;-66
2024/03/16 05:06:17;;;;;;;19.50;12.30;;;;;;;6.14;100.00;100998.03;108027;1254;71454;-67
2024/03/16 05:08:47;;;;;;;20.10;13.10;;;;;;;6.16;100.00;101001.33;108023;1254;71440;-67
2024/03/16 05:11:15;;;;;;;18.50;12.80;;;;;;;6.19;100.00;100997.46;108007;1254;61674;-66
2024/03/16 05:13:42;;;;;;;17.10;12.80;;;;;;;6.23;100.00;100996.16;108076;1254;61084;-67
2024/03/16 05:16:10;;;;;;;16.90;12.80;;;;;;;6.28;100.00;101000.60;107928;1257;75099;-66
2024/03/16 05:18:38;;;;;;;19.20;12.90;;;;;;;6.33;100.00;100998.60;107861;1257;72740;-68
2024/03/16 05:21:07;;;;;;;19.40;14.20;;;;;;;6.42;100.00;101000.65;107836;1257;71649;-66
2024/03/16 05:23:35;;;;;;;17.80;12.80;;;;;;;6.49;100.00;100997.96;107868;1258;61000;-67
2024/03/16 05:26:03;;;;;;;18.10;13.00;;;;;;;6.54;100.00;101002.41;107913;1256;60395;-66
2024/03/16 05:28:35;;;;;;;19.00;13.90;;;;;;;6.54;100.00;101001.67;107871;1257;74682;-66
2024/03/16 05:31:17;;;;;;;18.60;12.90;;;;;;;6.58;100.00;100999.52;107909;1257;74950;-66
2024/03/16 05:34:05;;;;;;;19.30;13.20;;;;;;;6.63;100.00;101002.85;107952;1254;72432;-67
2024/03/16 05:36:33;;;;;;;19.20;13.40;;;;;;;6.66;100.00;101000.09;108045;1254;61214;-66
2024/03/16 05:39:00;;;;;;;16.70;13.00;;;;;;;6.71;100.00;100997.88;108065;1254;61230;-68
2024/03/16 05:41:28;;;;;;;18.50;13.70;;;;;;;6.77;100.00;101001.09;108004;1254;73375;-67
2024/03/16 05:43:56;;;;;;;16.80;12.40;;;;;;;6.83;100.00;101000.66;108027;1254;72793;-66
2024/03/16 05:46:24;;;;;;;20.40;14.40;;;;;;;6.86;100.00;100999.27;108088;1254;71128;-65
2024/03/16 05:48:51;;;;;;;16.80;12.60;;;;;;;6.87;100.00;101002.96;107874;1254;351615;-66
2024/03/16 05:51:19;;;;;;;19.10;13.40;;;;;;;6.88;100.00;101003.13;107981;1257;61196;-67
2024/03/16 05:53:47;;;;;;;17.80;12.80;;;;;;;6.87;100.00;101004.55;108025;1260;74746;-66
2024/03/16 05:56:14;;;;;;;17.80;12.90;;;;;;;6.90;100.00;101004.83;107990;1258;71592;-66
2024/03/16 05:58:42;;;;;;;17.90;12.90;;;;;;;6.95;100.00;101003.95;107969;1258;72476;-67
2024/03/16 06:01:12;;;;;;;18.80;12.90;;;;;;;6.99;100.00;101008.15;107857;1257;60453;-67
2024/03/16 06:03:40;;;;;;;16.70;12.40;;;;;;;7.03;100.00;101011.83;108121;1254;61102;-67
2024/03/16 06:06:07;;;;;;;15.70;11.90;;;;;;;7.07;100.00;101012.19;107982;1257;74730;-66
2024/03/16 06:08:36;;;;;;;17.70;12.50;;;;;;;7.08;100.00;101013.50;107868;1257;71491;-66
2024/03/16 06:11:04;;;;;;;16.70;12.80;;;;;;;7.08;100.00;101017.86;107838;1254;72905;-66
2024/03/16 06:13:32;;;;;;;20.00;13.00;;;;;;;7.09;100.00;101020.70;107939;1257;61132;-66
2024/03/16 06:16:12;;;;;;;18.90;12.90;;;;;;;7.10;100.00;101019.46;107970;1255;61119;-67
2024/03/16 06:19:06;;;;;;;19.80;13.60;;;;;;;7.16;100.00;101022.34;107905;1256;73842;-67
2024/03/16 06:21:34;;;;;;;19.70;14.00;;;;;;;7.21;100.00;101023.43;108023;1254;71180;-67
2024/03/16 06:24:04;;;;;;;20.90;14.10;;;;;;;7.22;100.00;101023.05;108118;1254;72619;-67
2024/03/16 06:26:36;;;;;;;19.00;13.30;;;;;;;7.24;100.00;101020.01;107973;1254;60407;-67
2024/03/16 06:29:08;;;;;;;18.80;13.50;;;;;;;7.24;100.00;101016.35;107966;1257;61113;-67
2024/03/16 06:31:37;;;;;;;21.40;14.10;;;;;;;7.29;100.00;101021.54;108026;1257;73345;-67
2024/03/16 06:34:06;;;;;;;19.00;13.50;;;;;;;7.31;100.00;101015.63;107869;1260;72803;-67
2024/03/16 06:36:35;;;;;;;20.40;14.30;;;;;;;7.33;100.00;101023.07;108022;1256;72783;-67
2024/03/16 06:39:07;;;;;;;20.60;14.00;;;;;;;7.36;100.00;101020.39;107808;1256;61148;-69
2024/03/16 06:41:34;;;;;;;23.00;15.20;;;;;;;7.37;100.00;101023.17;107972;1256;61138;-67
2024/03/16 06:44:02;;;;;;;23.30;15.30;;;;;;;7.41;100.00;101023.99;107902;1255;74102;-66
2024/03/16 06:46:31;;;;;;;21.60;15.00;;;;;;;7.49;100.00;101024.42;107905;1257;71453;-66
2024/03/16 06:49:05;;;;;;;24.60;16.10;;;;;;;7.56;100.00;101022.00;107970;1256;72489;-67
2024/03/16 06:51:34;;;;;;;23.80;16.00;;;;;;;7.63;100.00;101019.58;107919;1257;61157;-67
2024/03/16 06:54:03;;;;;;;23.70;15.50;;;;;;;7.70;100.00;101022.00;107907;1254;61218;-68
2024/03/16 06:56:31;;;;;;;23.00;15.40;;;;;;;7.79;100.00;101022.00;108002;1254;74624;-66
2024/03/16 06:58:59;;;;;;;22.50;15.40;;;;;;;7.87;100.00;101025.45;107901;1257;71473;-66
2024/03/16 07:01:27;;;;;;;23.30;16.30;;;;;;;7.94;100.00;101021.01;107961;1254;71406;-66
2024/03/16 07:03:55;;;;;;;22.70;15.20;;;;;;;8.01;100.00;101021.66;107971;1254;60435;-67
2024/03/16 07:06:23;;;;;;;21.10;14.40;;;;;;;8.09;100.00;101022.17;108016;1260;59010;-67
2024/03/16 07:08:51;;;;;;;25.60;16.70;;;;;;;8.16;100.00;101022.39;107940;1257;74678;-67
2024/03/16 07:11:19;;;;;;;24.40;15.90;;;;;;;8.23;100.00;101022.23;107943;1254;71257;-66
2024/03/16 07:13:47;;;;;;;21.90;15.90;;;;;;;8.28;100.00;101025.23;107867;1257;71472;-66
2024/03/16 07:16:15;;;;;;;24.10;16.10;;;;;;;8.34;100.00;101025.30;107875;1256;61719;-66
2024/03/16 07:18:44;;;;;;;24.40;16.80;;;;;;;8.45;100.00;101026.73;107897;1256;61003;-67
2024/03/16 07:21:14;;;;;;;22.50;15.70;;;;;;;8.53;100.00;101027.13;107929;1254;74691;-66
2024/03/16 07:23:43;;;;;;;24.70;16.40;;;;;;;8.60;100.00;101024.94;108019;1254;72698;-66
2024/03/16 07:26:11;;;;;;;24.50;16.40;;;;;;;8.68;100.00;101021.08;108014;1260;72790;-67
2024/03/16 07:28:38;;;;;;;22.50;15.30;;;;;;;8.77;100.00;101025.34;108015;1254;60983;-67
2024/03/16 07:31:06;;;;;;;22.50;15.60;;;;;;;8.82;100.00;101025.70;108040;1254;60086;-67
2024/03/16 07:33:34;;;;;;;23.10;16.10;;;;;;;8.84;100.00;101023.06;107868;1257;74491;-66
2024/03/16 07:36:04;;;;;;;23.40;15.70;;;;;;;8.88;100.00;101024.76;107916;1256;73089;-68
2024/03/16 07:38:31;;;;;;;24.20;14.90;;;;;;;8.93;100.00;101023.42;107990;1253;71786;-66
2024/03/16 07:40:59;;;;;;;22.50;14.60;;;;;;;9.00;100.00;101020.36;108117;1254;61693;-67
2024/03/16 07:43:26;;;;;;;20.70;15.00;;;;;;;9.06;100.00;101019.58;107826;1257;62387;-67
2024/03/16 07:45:54;;;;;;;22.90;15.10;;;;;;;9.11;100.00;101020.65;107975;1254;73459;-67
2024/03/16 07:48:22;;;;;;;22.00;15.60;;;;;;;9.18;100.00;101019.51;108097;1254;71223;-67
2024/03/16 07:50:50;;;;;;;20.60;14.50;;;;;;;9.20;100.00;101017.89;107955;1257;73651;-67
2024/03/16 07:53:17;;;;;;;21.30;15.00;;;;;;;9.25;100.00;101019.37;107979;1254;61088;-66
2024/03/16 07:55:45;;;;;;;23.10;14.70;;;;;;;9.33;100.00;101018.58;108065;1254;61091;-67
2024/03/16 07:58:13;;;;;;;23.60;15.10;;;;;;;9.45;100.00;101017.48;107985;1254;74707;-67
2024/03/16 08:00:41;;;;;;;20.40;14.10;;;;;;;9.55;100.00;101019.02;108205;1254;72888;-68
2024/03/16 08:03:08;;;;;;;22.50;14.90;;;;;;;9.64;100.00;101011.31;107991;1256;72701;-68
2024/03/16 08:05:36;;;;;;;20.60;14.50;;;;;;;9.74;100.00;101014.01;108006;1255;61231;-68
2024/03/16 08:08:05;;;;;;;20.50;14.20;;;;;;;9.84;100.00;101013.27;107871;1256;61256;-66
2024/03/16 08:10:32;;;;;;;19.20;14.00;;;;;;;9.91;99.78;101012.42;108022;1254;74613;-67
2024/03/16 08:13:00;;;;;;;19.00;13.90;;;;;;;10.02;99.10;101013.73;107959;1254;72967;-67
2024/03/16 08:15:28;;;;;;;20.50;14.00;;;;;;;10.10;97.54;101012.86;108071;1254;71728;-67
2024/03/16 08:17:57;;;;;;;19.30;14.20;;;;;;;10.16;96.35;101010.43;107848;1256;62017;-68
2024/03/16 08:20:25;;;;;;;17.50;12.20;;;;;;;10.24;94.57;101013.73;107974;1257;62294;-67
2024/03/16 08:22:54;;;;;;;19.30;12.80;;;;;;;10.24;92.71;101011.59;108031;1254;75719;-66
2024/03/16 08:25:22;;;;;;;21.90;13.40;;;;;;;10.28;92.13;101008.30;108345;1254;75118;-66
2024/03/16 08:27:50;;;;;;;17.70;11.80;;;;;;;10.37;91.16;101007.48;108102;1255;72536;-65
2024/03/16 08:30:18;;;;;;;17.60;12.30;;;;;;;10.43;89.95;101006.88;108043;1256;61272;-67
2024/03/16 08:32:46;;;;;;;19.90;12.30;;;;;;;10.45;88.33;101004.27;107989;1254;61074;-65
2024/03/16 08:35:14;;;;;;;16.40;11.80;;;;;;;10.45;87.41;101004.93;107999;1254;73630;-67
2024/03/16 08:37:41;;;;;;;20.50;13.20;;;;;;;10.49;86.89;100999.54;107938;1255;73497;-67
2024/03/16 08:40:12;;;;;;;18.50;12.80;;;;;;;10.57;86.12;101001.73;107999;1254;74793;-66
2024/03/16 08:42:41;;;;;;;19.90;12.50;;;;;;;10.64;84.42;100995.36;108056;1254;60481;-66
2024/03/16 08:45:09;;;;;;;19.30;12.30;;;;;;;10.73;83.47;100990.96;108118;1254;62208;-66
2024/03/16 08:47:37;;;;;;;18.50;12.10;;;;;;;10.80;82.16;100992.54;108120;1254;73284;-67
2024/03/16 08:50:08;;;;;;;17.00;11.90;;;;;;;10.82;81.09;100990.89;107933;1257;71489;-67
2024/03/16 08:52:35;;;;;;;20.10;13.40;;;;;;;10.86;80.97;100988.27;107913;1254;72691;-66
2024/03/16 08:55:06;;;;;;;20.60;13.00;;;;;;;10.91;80.50;100990.05;108044;1256;62331;-66
2024/03/16 08:57:33;;;;;;;19.10;13.10;;;;;;;10.98;79.90;100984.79;107923;1254;62334;-66
2024/03/16 09:00:04;;;;;;;20.00;12.80;;;;;;;11.07;79.21;100985.12;108114;1253;73733;-66
2024/03/16 09:02:32;;;;;;;19.00;14.30;;;;;;;11.10;77.99;100987.88;107822;1257;73888;-67
2024/03/16 09:05:00;;;;;;;20.50;13.80;;;;;;;11.06;76.77;100986.71;107805;1257;72590;-67
2024/03/16 09:07:28;;;;;;;17.70;13.00;;;;;;;11.05;76.90;100985.15;107998;1260;61148;-66
2024/03/16 09:09:57;;;;;;;19.80;12.90;;;;;;;11.14;76.79;100981.41;107940;1254;62242;-66
2024/03/16 09:12:26;;;;;;;18.50;12.90;;;;;;;11.29;75.97;100983.55;107974;1253;76888;-66
2024/03/16 09:14:53;;;;;;;17.00;12.60;;;;;;;11.41;74.93;100980.95;107904;1254;73641;-66
2024/03/16 09:17:21;;;;;;;16.30;11.30;;;;;;;11.52;74.18;100984.05;107990;1255;74909;-67
2024/03/16 09:19:49;;;;;;;16.60;12.00;;;;;;;11.58;73.07;100984.52;107939;1257;61835;-67
2024/03/16 09:22:16;;;;;;;15.20;11.30;;;;;;;11.62;72.56;100979.48;107934;1254;62323;-68
2024/03/16 09:24:46;;;;;;;17.40;12.00;;;;;;;11.70;71.50;100981.23;108224;1260;73704;-67
2024/03/16 09:27:13;;;;;;;16.40;12.50;;;;;;;11.78;71.13;100981.14;107891;1257;72918;-67
2024/03/16 09:29:43;;;;;;;16.70;11.30;;;;;;;11.89;70.64;100981.48;107931;1257;71705;-67
2024/03/16 09:32:13;;;;;;;17.80;11.60;;;;;;;11.94;69.66;100980.30;107942;1256;61112;-67
2024/03/16 09:34:41;;;;;;;16.10;11.60;;;;;;;12.01;68.98;100980.82;107984;1254;61487;-66
2024/03/16 09:37:09;;;;;;;14.60;11.70;;;;;;;12.05;67.93;100984.87;108030;1257;76975;-66
2024/03/16 09:39:37;;;;;;;17.50;12.10;;;;;;;12.08;67.15;100983.52;107987;1257;75012;-67
2024/03/16 09:42:06;;;;;;;17.00;12.30;;;;;;;12.07;66.13;100980.34;108054;1257;73922;-68
2024/03/16 09:44:33;;;;;;;16.90;12.70;;;;;;;11.97;65.90;100977.36;107852;1257;61188;-68
2024/03/16 09:47:02;;;;;;;16.30;11.60;;;;;;;11.92;65.74;100976.26;108018;1257;62315;-68
2024/03/16 09:49:30;;;;;;;15.40;11.60;;;;;;;11.91;65.41;100977.21;107961;1256;73982;-67
2024/03/16 09:51:59;;;;;;;18.60;12.50;;;;;;;11.94;65.52;100976.27;107848;1254;74968;-67
2024/03/16 09:54:28;;;;;;;18.90;12.90;;;;;;;11.98;64.97;100972.34;107978;1254;75055;-67
2024/03/16 09:56:55;;;;;;;18.60;13.00;;;;;;;12.00;64.87;100970.32;108192;1257;59982;-67
2024/03/16 09:59:23;;;;;;;14.70;11.40;;;;;;;12.03;64.76;100971.63;107985;1254;61134;-67
2024/03/16 10:01:59;;;;;;;15.60;11.70;;;;;;;12.05;64.44;100971.42;107954;1255;76984;-68
2024/03/16 10:04:27;;;;;;;14.80;11.50;;;;;;;11.98;64.38;100968.86;107876;1254;75008;-67
2024/03/16 10:06:55;;;;;;;20.20;13.30;;;;;;;11.93;64.12;100971.19;108086;1254;73657;-66
2024/03/16 10:09:25;;;;;;;18.90;13.20;;;;;;;11.93;64.35;100968.61;109197;1254;59820;-67
2024/03/16 10:11:54;;;;;;;17.10;13.70;;;;;;;11.90;64.30;100969.81;109241;1254;60571;-67
2024/03/16 10:14:22;;;;;;;17.90;13.40;;;;;;;11.90;64.23;100970.30;109320;1254;76986;-67
2024/03/16 10:16:50;;;;;;;17.90;12.70;;;;;;;11.92;64.27;100967.91;109099;1254;75085;-68
2024/03/16 10:19:18;;;;;;;16.50;12.80;;;;;;;12.01;64.28;100970.11;109328;1254;73679;-68
2024/03/16 10:21:53;;;;;;;19.50;13.80;;;;;;;12.12;63.78;100968.70;109306;1254;59158;-67
2024/03/16 10:24:21;;;;;;;16.70;13.00;;;;;;;12.24;63.53;100964.34;109246;1254;61018;-68
2024/03/16 10:26:50;;;;;;;16.80;12.80;;;;;;;12.36;62.85;100966.02;109112;1256;76975;-67
2024/03/16 10:29:19;;;;;;;16.90;13.10;;;;;;;12.47;62.56;100967.80;109154;1255;72194;-67
2024/03/16 10:31:49;;;;;;;18.40;12.80;;;;;;;12.56;62.15;100964.84;109041;1256;73913;-68
2024/03/16 10:34:22;;;;;;;16.10;13.10;;;;;;;12.68;61.52;100962.71;109001;1256;62079;-68
2024/03/16 10:36:50;;;;;;;17.10;13.30;;;;;;;12.77;60.83;100959.43;109250;1256;59451;-67
2024/03/16 10:39:17;;;;;;;16.70;12.90;;;;;;;12.87;60.40;100957.55;109296;1253;76892;-67
2024/03/16 10:41:45;;;;;;;14.50;11.60;;;;;;;13.00;59.96;100953.08;109132;1254;71969;-68
2024/03/16 10:44:12;;;;;;;17.30;12.50;;;;;;;13.12;59.26;100951.58;109237;1254;72965;-67
2024/03/16 10:46:42;;;;;;;16.90;12.50;;;;;;;13.16;58.47;100948.90;109196;1255;59419;-68
2024/03/16 10:49:10;;;;;;;17.80;13.70;;;;;;;13.19;57.70;100946.96;109252;1254;60534;-67
2024/03/16 10:51:37;;;;;;;18.10;13.40;;;;;;;13.20;57.16;100944.55;109276;1254;74113;-67
2024/03/16 10:54:10;;;;;;;16.60;13.30;;;;;;;13.22;57.26;100946.33;109091;1254;72133;-66
2024/03/16 10:56:38;;;;;;;16.60;13.60;;;;;;;13.26;57.17;100946.37;108967;1254;75278;-66
2024/03/16 10:59:07;;;;;;;19.20;13.00;;;;;;;13.32;56.70;100943.86;109135;1256;60491;-67
2024/03/16 11:01:38;;;;;;;16.90;13.10;;;;;;;13.35;56.50;100947.24;109040;1255;62182;-67
2024/03/16 11:06:30;;;;;;;14.30;12.40;;;;;;;13.51;55.74;100936.97;104959;1292;600555;-67
2024/03/16 11:08:58;;;;;;;17.60;12.70;;;;;;;13.54;55.11;100936.92;107989;1257;62368;-66
2024/03/16 11:11:26;;;;;;;16.10;12.20;;;;;;;13.54;54.59;100938.42;108062;1260;61570;-67